SCF746 ZPLJ-ZPPP
Flight info
| Callsign | SCF746 |
|---|---|
| Flight time | 0h 52m |
| Altitude | 33100 |
| Route | DAL21D DAL W162 BUBSU W146 GULOT GULOT9E |
| Aircraft | A320/M-SDE3FGHIRWY/LB1 |
Departure
| Time | 2026-05-07 10:30 |
|---|---|
| Airport | Lijiang Sanyi International Airport (ZPLJ) |
Arrival
| Time | 2026-05-07 11:22 |
|---|---|
| Airport | Kunming Changshui International Airport (ZPPP) |
| Time | Latitude | Longitude | Altitude | Speed | Heading |
|---|---|---|---|---|---|
| 2026-05-07 10:07 | 26.66946 | 100.24495 | 7306 ft | 0 kts | 160° |
| 2026-05-07 10:10 | 26.66946 | 100.24494 | 7308 ft | 0 kts | 160° |
| 2026-05-07 10:22 | 26.66950 | 100.24493 | 7305 ft | 2 kts | 160° |
| 2026-05-07 10:22 | 26.66966 | 100.24486 | 7305 ft | 3 kts | 160° |
| 2026-05-07 10:23 | 26.66982 | 100.24480 | 7306 ft | 3 kts | 160° |
| 2026-05-07 10:23 | 26.66999 | 100.24473 | 7306 ft | 3 kts | 160° |
| 2026-05-07 10:23 | 26.67015 | 100.24466 | 7306 ft | 3 kts | 160° |
| 2026-05-07 10:23 | 26.67032 | 100.24460 | 7306 ft | 3 kts | 160° |
| 2026-05-07 10:24 | 26.67048 | 100.24453 | 7309 ft | 3 kts | 160° |
| 2026-05-07 10:24 | 26.67065 | 100.24446 | 7307 ft | 3 kts | 160° |
| 2026-05-07 10:24 | 26.67081 | 100.24440 | 7307 ft | 2 kts | 162° |
| 2026-05-07 10:24 | 26.67088 | 100.24438 | 7307 ft | 0 kts | 178° |
| 2026-05-07 10:25 | 26.67087 | 100.24438 | 7307 ft | 1 kts | 178° |
| 2026-05-07 10:26 | 26.67040 | 100.24433 | 7306 ft | 12 kts | 193° |
| 2026-05-07 10:26 | 26.66955 | 100.24404 | 7305 ft | 13 kts | 197° |
| 2026-05-07 10:26 | 26.66866 | 100.24374 | 7306 ft | 13 kts | 197° |
| 2026-05-07 10:26 | 26.66776 | 100.24343 | 7306 ft | 14 kts | 197° |
| 2026-05-07 10:27 | 26.66682 | 100.24311 | 7308 ft | 14 kts | 197° |
| 2026-05-07 10:27 | 26.66585 | 100.24279 | 7309 ft | 15 kts | 197° |
| 2026-05-07 10:27 | 26.66484 | 100.24245 | 7307 ft | 15 kts | 197° |
| 2026-05-07 10:27 | 26.66396 | 100.24211 | 7307 ft | 11 kts | 211° |
| 2026-05-07 10:28 | 26.66392 | 100.24133 | 7308 ft | 11 kts | 287° |
| 2026-05-07 10:28 | 26.66416 | 100.24056 | 7305 ft | 9 kts | 307° |
| 2026-05-07 10:28 | 26.66464 | 100.24054 | 7306 ft | 6 kts | 18° |
| 2026-05-07 10:28 | 26.66467 | 100.24055 | 7306 ft | 0 kts | 18° |
| 2026-05-07 10:29 | 26.66502 | 100.24068 | 7308 ft | 18 kts | 18° |
| 2026-05-07 10:29 | 26.66873 | 100.24194 | 7309 ft | 92 kts | 17° |
| 2026-05-07 10:29 | 26.67695 | 100.24474 | 7304 ft | 152 kts | 17° |
| 2026-05-07 10:30 | 26.70153 | 100.25242 | 8133 ft | 195 kts | 13° |
| 2026-05-07 10:30 | 26.71496 | 100.25582 | 8700 ft | 200 kts | 12° |
| 2026-05-07 10:30 | 26.72855 | 100.25930 | 9481 ft | 200 kts | 13° |
| 2026-05-07 10:30 | 26.74217 | 100.26295 | 10226 ft | 202 kts | 13° |
| 2026-05-07 10:31 | 26.75598 | 100.26678 | 10816 ft | 211 kts | 14° |
| 2026-05-07 10:31 | 26.77106 | 100.27098 | 11142 ft | 234 kts | 13° |
| 2026-05-07 10:31 | 26.78738 | 100.27575 | 11476 ft | 253 kts | 17° |
| 2026-05-07 10:31 | 26.80326 | 100.28573 | 11743 ft | 271 kts | 42° |
| 2026-05-07 10:32 | 26.81452 | 100.30316 | 12016 ft | 286 kts | 69° |
| 2026-05-07 10:32 | 26.81886 | 100.32541 | 12322 ft | 302 kts | 90° |
| 2026-05-07 10:32 | 26.81887 | 100.34945 | 12571 ft | 315 kts | 93° |
| 2026-05-07 10:32 | 26.81843 | 100.37458 | 12908 ft | 331 kts | 92° |
| 2026-05-07 10:33 | 26.81812 | 100.40111 | 13098 ft | 352 kts | 89° |
| 2026-05-07 10:33 | 26.82015 | 100.42923 | 13245 ft | 374 kts | 84° |
| 2026-05-07 10:33 | 26.82428 | 100.45873 | 13369 ft | 394 kts | 80° |
| 2026-05-07 10:33 | 26.82960 | 100.48926 | 13783 ft | 404 kts | 79° |
| 2026-05-07 10:34 | 26.83452 | 100.51998 | 14241 ft | 409 kts | 87° |
| 2026-05-07 10:34 | 26.83128 | 100.55145 | 14654 ft | 409 kts | 110° |
| 2026-05-07 10:34 | 26.81770 | 100.57917 | 15067 ft | 407 kts | 131° |
| 2026-05-07 10:34 | 26.79772 | 100.60155 | 15494 ft | 408 kts | 143° |
| 2026-05-07 10:35 | 26.77494 | 100.62055 | 15982 ft | 410 kts | 148° |
| 2026-05-07 10:35 | 26.75139 | 100.63865 | 16434 ft | 413 kts | 148° |
| 2026-05-07 10:35 | 26.72791 | 100.65752 | 16897 ft | 417 kts | 147° |
| 2026-05-07 10:35 | 26.70349 | 100.67509 | 17312 ft | 418 kts | 155° |
| 2026-05-07 10:36 | 26.67701 | 100.68851 | 17750 ft | 418 kts | 164° |
| 2026-05-07 10:36 | 26.64891 | 100.69655 | 18167 ft | 416 kts | 175° |
| 2026-05-07 10:36 | 26.62013 | 100.69782 | 18579 ft | 414 kts | 188° |
| 2026-05-07 10:36 | 26.59197 | 100.69207 | 19008 ft | 410 kts | 200° |
| 2026-05-07 10:37 | 26.56508 | 100.68169 | 19426 ft | 410 kts | 203° |
| 2026-05-07 10:37 | 26.53813 | 100.67115 | 19871 ft | 411 kts | 203° |
| 2026-05-07 10:37 | 26.51102 | 100.66067 | 20278 ft | 413 kts | 202° |
| 2026-05-07 10:37 | 26.48382 | 100.65025 | 20684 ft | 414 kts | 202° |
| 2026-05-07 10:38 | 26.45648 | 100.63980 | 21049 ft | 416 kts | 202° |
| 2026-05-07 10:38 | 26.42904 | 100.62933 | 21389 ft | 418 kts | 202° |
| 2026-05-07 10:38 | 26.40152 | 100.61885 | 21791 ft | 419 kts | 202° |
| 2026-05-07 10:38 | 26.37388 | 100.60835 | 22126 ft | 421 kts | 202° |
| 2026-05-07 10:39 | 26.34611 | 100.59776 | 22466 ft | 422 kts | 202° |
| 2026-05-07 10:39 | 26.31837 | 100.58699 | 22846 ft | 423 kts | 203° |
| 2026-05-07 10:39 | 26.29056 | 100.57605 | 23208 ft | 425 kts | 203° |
| 2026-05-07 10:39 | 26.26262 | 100.56499 | 23542 ft | 426 kts | 203° |
| 2026-05-07 10:40 | 26.23465 | 100.55391 | 23813 ft | 428 kts | 202° |
| 2026-05-07 10:40 | 26.20655 | 100.54284 | 24075 ft | 429 kts | 203° |
| 2026-05-07 10:40 | 26.17839 | 100.53177 | 24221 ft | 430 kts | 203° |
| 2026-05-07 10:40 | 26.15012 | 100.52069 | 24432 ft | 432 kts | 202° |
| 2026-05-07 10:41 | 26.12173 | 100.50958 | 24711 ft | 433 kts | 202° |
| 2026-05-07 10:41 | 26.09327 | 100.49847 | 24995 ft | 434 kts | 202° |
| 2026-05-07 10:41 | 26.06474 | 100.48736 | 25263 ft | 435 kts | 202° |
| 2026-05-07 10:41 | 26.03609 | 100.47620 | 25507 ft | 437 kts | 202° |
| 2026-05-07 10:42 | 26.00732 | 100.46498 | 25766 ft | 439 kts | 203° |
| 2026-05-07 10:42 | 25.97848 | 100.45368 | 26050 ft | 440 kts | 203° |
| 2026-05-07 10:42 | 25.94993 | 100.44250 | 26259 ft | 442 kts | 203° |
| 2026-05-07 10:42 | 25.92051 | 100.43103 | 26506 ft | 443 kts | 203° |
| 2026-05-07 10:43 | 25.89177 | 100.41986 | 26774 ft | 444 kts | 203° |
| 2026-05-07 10:43 | 25.86221 | 100.40835 | 27026 ft | 445 kts | 204° |
| 2026-05-07 10:43 | 25.83342 | 100.39712 | 27283 ft | 446 kts | 204° |
| 2026-05-07 10:43 | 25.80410 | 100.38570 | 27453 ft | 447 kts | 204° |
| 2026-05-07 10:44 | 25.77469 | 100.37428 | 27701 ft | 447 kts | 204° |
| 2026-05-07 10:44 | 25.74534 | 100.36293 | 28083 ft | 446 kts | 204° |
| 2026-05-07 10:44 | 25.71612 | 100.35165 | 28436 ft | 444 kts | 204° |
| 2026-05-07 10:44 | 25.68695 | 100.34035 | 28779 ft | 443 kts | 204° |
| 2026-05-07 10:45 | 25.65784 | 100.32913 | 29096 ft | 443 kts | 203° |
| 2026-05-07 10:45 | 25.62765 | 100.32126 | 29441 ft | 450 kts | 194° |
| 2026-05-07 10:45 | 25.59656 | 100.31700 | 29776 ft | 450 kts | 193° |
| 2026-05-07 10:45 | 25.56548 | 100.31285 | 30042 ft | 450 kts | 193° |
| 2026-05-07 10:46 | 25.53428 | 100.30869 | 30200 ft | 452 kts | 193° |
| 2026-05-07 10:46 | 25.50302 | 100.30454 | 30439 ft | 452 kts | 193° |
| 2026-05-07 10:46 | 25.47179 | 100.30037 | 30737 ft | 452 kts | 193° |
| 2026-05-07 10:46 | 25.44064 | 100.29620 | 31027 ft | 451 kts | 193° |
| 2026-05-07 10:47 | 25.40953 | 100.29202 | 31209 ft | 451 kts | 193° |
| 2026-05-07 10:47 | 25.37839 | 100.28783 | 31489 ft | 450 kts | 193° |
| 2026-05-07 10:47 | 25.34729 | 100.28365 | 31798 ft | 450 kts | 193° |
| 2026-05-07 10:47 | 25.31627 | 100.27950 | 32099 ft | 449 kts | 193° |
| 2026-05-07 10:48 | 25.28526 | 100.27540 | 32389 ft | 449 kts | 193° |
| 2026-05-07 10:48 | 25.25423 | 100.27128 | 32614 ft | 449 kts | 193° |
| 2026-05-07 10:48 | 25.22317 | 100.26713 | 32851 ft | 450 kts | 193° |
| 2026-05-07 10:48 | 25.19210 | 100.26298 | 33007 ft | 451 kts | 193° |
| 2026-05-07 10:49 | 25.12980 | 100.25464 | 33039 ft | 455 kts | 193° |
| 2026-05-07 10:49 | 25.06651 | 100.24932 | 33039 ft | 466 kts | 180° |
| 2026-05-07 10:50 | 25.03452 | 100.25756 | 33029 ft | 481 kts | 164° |
| 2026-05-07 10:50 | 25.00497 | 100.27593 | 33030 ft | 497 kts | 147° |
| 2026-05-07 10:50 | 24.98083 | 100.30372 | 33027 ft | 511 kts | 128° |
| 2026-05-07 10:50 | 24.96480 | 100.33898 | 33029 ft | 521 kts | 111° |
| 2026-05-07 10:51 | 24.94364 | 100.41557 | 33021 ft | 523 kts | 109° |
| 2026-05-07 10:51 | 24.92280 | 100.49239 | 33011 ft | 523 kts | 109° |
| 2026-05-07 10:52 | 24.90172 | 100.56913 | 33019 ft | 524 kts | 110° |
| 2026-05-07 10:52 | 24.88051 | 100.64586 | 33026 ft | 523 kts | 109° |
| 2026-05-07 10:53 | 24.85937 | 100.72243 | 33031 ft | 522 kts | 109° |
| 2026-05-07 10:53 | 24.83823 | 100.79887 | 33030 ft | 522 kts | 109° |
| 2026-05-07 10:54 | 24.81695 | 100.87518 | 33011 ft | 521 kts | 110° |
| 2026-05-07 10:54 | 24.79566 | 100.95143 | 33016 ft | 521 kts | 110° |
| 2026-05-07 10:55 | 24.77432 | 101.02774 | 33013 ft | 522 kts | 110° |
| 2026-05-07 10:55 | 24.75300 | 101.10397 | 33008 ft | 521 kts | 110° |
| 2026-05-07 10:56 | 24.73181 | 101.17963 | 33000 ft | 521 kts | 110° |
| 2026-05-07 10:56 | 24.71044 | 101.25580 | 32997 ft | 521 kts | 110° |
| 2026-05-07 10:57 | 24.68899 | 101.33179 | 33019 ft | 519 kts | 110° |
| 2026-05-07 10:57 | 24.66766 | 101.40737 | 33034 ft | 517 kts | 110° |
| 2026-05-07 10:58 | 24.64640 | 101.48268 | 33025 ft | 515 kts | 110° |
| 2026-05-07 10:58 | 24.62514 | 101.55792 | 33020 ft | 515 kts | 110° |
| 2026-05-07 10:59 | 24.60367 | 101.63291 | 33011 ft | 515 kts | 110° |
| 2026-05-07 10:59 | 24.58178 | 101.70779 | 33006 ft | 515 kts | 110° |
| 2026-05-07 11:00 | 24.55987 | 101.78258 | 32543 ft | 515 kts | 110° |
| 2026-05-07 11:00 | 24.54881 | 101.82031 | 31338 ft | 523 kts | 110° |
| 2026-05-07 11:00 | 24.53764 | 101.85846 | 30489 ft | 524 kts | 110° |
| 2026-05-07 11:01 | 24.52651 | 101.89653 | 29627 ft | 524 kts | 110° |
| 2026-05-07 11:01 | 24.51538 | 101.93461 | 28722 ft | 523 kts | 110° |
| 2026-05-07 11:01 | 24.50437 | 101.97213 | 28499 ft | 508 kts | 110° |
| 2026-05-07 11:01 | 24.49375 | 102.00838 | 28362 ft | 490 kts | 110° |
| 2026-05-07 11:02 | 24.48707 | 102.04443 | 28248 ft | 479 kts | 93° |
| 2026-05-07 11:02 | 24.49092 | 102.08006 | 28118 ft | 465 kts | 72° |
| 2026-05-07 11:02 | 24.50475 | 102.11131 | 27995 ft | 447 kts | 51° |
| 2026-05-07 11:02 | 24.52391 | 102.13742 | 27863 ft | 433 kts | 47° |
| 2026-05-07 11:03 | 24.54428 | 102.16087 | 27756 ft | 415 kts | 32° |
| 2026-05-07 11:03 | 24.56911 | 102.17453 | 27546 ft | 389 kts | 7° |
| 2026-05-07 11:03 | 24.59513 | 102.17635 | 27024 ft | 367 kts | 341° |
| 2026-05-07 11:03 | 24.61793 | 102.16637 | 26594 ft | 345 kts | 319° |
| 2026-05-07 11:04 | 24.63630 | 102.15003 | 26149 ft | 336 kts | 309° |
| 2026-05-07 11:04 | 24.65364 | 102.13271 | 25741 ft | 340 kts | 317° |
| 2026-05-07 11:04 | 24.67427 | 102.11962 | 25348 ft | 347 kts | 331° |
| 2026-05-07 11:04 | 24.69718 | 102.11103 | 24930 ft | 348 kts | 335° |
| 2026-05-07 11:05 | 24.72031 | 102.10311 | 24521 ft | 350 kts | 341° |
| 2026-05-07 11:05 | 24.74473 | 102.09996 | 24146 ft | 355 kts | 349° |
| 2026-05-07 11:05 | 24.76930 | 102.09802 | 23767 ft | 353 kts | 349° |
| 2026-05-07 11:05 | 24.79383 | 102.09623 | 23370 ft | 352 kts | 350° |
| 2026-05-07 11:06 | 24.81804 | 102.09617 | 23022 ft | 357 kts | 2° |
| 2026-05-07 11:06 | 24.84255 | 102.10096 | 22643 ft | 356 kts | 5° |
| 2026-05-07 11:06 | 24.86684 | 102.10592 | 22268 ft | 354 kts | 5° |
| 2026-05-07 11:06 | 24.89096 | 102.11085 | 21899 ft | 352 kts | 6° |
| 2026-05-07 11:07 | 24.91433 | 102.11940 | 21532 ft | 357 kts | 20° |
| 2026-05-07 11:07 | 24.93693 | 102.13082 | 21173 ft | 357 kts | 20° |
| 2026-05-07 11:07 | 24.95966 | 102.14236 | 20914 ft | 353 kts | 20° |
| 2026-05-07 11:07 | 24.98149 | 102.15395 | 20575 ft | 354 kts | 27° |
| 2026-05-07 11:08 | 25.00133 | 102.17022 | 20234 ft | 356 kts | 36° |
| 2026-05-07 11:08 | 25.02004 | 102.18789 | 19907 ft | 354 kts | 45° |
| 2026-05-07 11:08 | 25.03242 | 102.21098 | 19390 ft | 351 kts | 75° |
| 2026-05-07 11:08 | 25.03395 | 102.23736 | 18876 ft | 344 kts | 105° |
| 2026-05-07 11:09 | 25.02465 | 102.26086 | 18357 ft | 331 kts | 132° |
| 2026-05-07 11:09 | 25.00882 | 102.27874 | 17740 ft | 323 kts | 146° |
| 2026-05-07 11:09 | 24.99086 | 102.29355 | 17280 ft | 320 kts | 149° |
| 2026-05-07 11:09 | 24.97273 | 102.30767 | 16712 ft | 318 kts | 148° |
| 2026-05-07 11:10 | 24.95512 | 102.32228 | 16176 ft | 316 kts | 146° |
| 2026-05-07 11:10 | 24.93822 | 102.33763 | 15714 ft | 314 kts | 143° |
| 2026-05-07 11:10 | 24.92188 | 102.35361 | 15413 ft | 313 kts | 141° |
| 2026-05-07 11:10 | 24.90599 | 102.36990 | 15150 ft | 311 kts | 140° |
| 2026-05-07 11:11 | 24.89031 | 102.38631 | 14874 ft | 310 kts | 139° |
| 2026-05-07 11:11 | 24.87476 | 102.40265 | 14608 ft | 308 kts | 139° |
| 2026-05-07 11:11 | 24.85933 | 102.41890 | 14344 ft | 306 kts | 139° |
| 2026-05-07 11:11 | 24.84398 | 102.43505 | 14082 ft | 305 kts | 139° |
| 2026-05-07 11:12 | 24.82865 | 102.45108 | 13839 ft | 303 kts | 139° |
| 2026-05-07 11:12 | 24.81346 | 102.46702 | 13517 ft | 302 kts | 136° |
| 2026-05-07 11:12 | 24.80181 | 102.48691 | 12700 ft | 322 kts | 109° |
| 2026-05-07 11:12 | 24.80005 | 102.51188 | 11863 ft | 338 kts | 78° |
| 2026-05-07 11:13 | 24.80459 | 102.52827 | 11589 ft | 338 kts | 69° |
| 2026-05-07 11:13 | 24.81556 | 102.55983 | 11464 ft | 322 kts | 69° |
| 2026-05-07 11:13 | 24.82359 | 102.58232 | 11386 ft | 310 kts | 68° |
| 2026-05-07 11:13 | 24.82876 | 102.59679 | 11349 ft | 303 kts | 69° |
| 2026-05-07 11:14 | 24.83631 | 102.61800 | 11286 ft | 292 kts | 69° |
| 2026-05-07 11:14 | 24.84354 | 102.63850 | 11231 ft | 281 kts | 69° |
| 2026-05-07 11:14 | 24.85040 | 102.65820 | 11175 ft | 271 kts | 69° |
| 2026-05-07 11:14 | 24.85704 | 102.67740 | 11132 ft | 267 kts | 69° |
| 2026-05-07 11:15 | 24.86356 | 102.69634 | 11084 ft | 261 kts | 69° |
| 2026-05-07 11:15 | 24.86987 | 102.71471 | 10980 ft | 252 kts | 69° |
| 2026-05-07 11:15 | 24.87597 | 102.73243 | 10937 ft | 243 kts | 69° |
| 2026-05-07 11:15 | 24.88306 | 102.74886 | 10974 ft | 229 kts | 54° |
| 2026-05-07 11:16 | 24.89379 | 102.76075 | 10970 ft | 211 kts | 37° |
| 2026-05-07 11:16 | 24.90478 | 102.77024 | 10996 ft | 187 kts | 37° |
| 2026-05-07 11:16 | 24.91468 | 102.77882 | 10955 ft | 178 kts | 37° |
| 2026-05-07 11:16 | 24.92427 | 102.78714 | 10802 ft | 174 kts | 37° |
| 2026-05-07 11:17 | 24.93374 | 102.79534 | 10631 ft | 172 kts | 38° |
| 2026-05-07 11:17 | 24.94313 | 102.80348 | 10431 ft | 171 kts | 37° |
| 2026-05-07 11:17 | 24.95243 | 102.81154 | 10235 ft | 169 kts | 38° |
| 2026-05-07 11:17 | 24.96160 | 102.81950 | 10055 ft | 167 kts | 38° |
| 2026-05-07 11:18 | 24.97057 | 102.82727 | 9831 ft | 165 kts | 38° |
| 2026-05-07 11:18 | 24.97970 | 102.83519 | 9617 ft | 164 kts | 38° |
| 2026-05-07 11:18 | 24.98867 | 102.84297 | 9409 ft | 164 kts | 38° |
| 2026-05-07 11:18 | 24.99759 | 102.85072 | 9201 ft | 163 kts | 38° |
| 2026-05-07 11:19 | 25.00648 | 102.85843 | 8997 ft | 162 kts | 38° |
| 2026-05-07 11:19 | 25.01533 | 102.86611 | 8798 ft | 162 kts | 38° |
| 2026-05-07 11:19 | 25.02403 | 102.87367 | 8587 ft | 161 kts | 38° |
| 2026-05-07 11:19 | 25.03293 | 102.88139 | 8398 ft | 160 kts | 39° |
| 2026-05-07 11:20 | 25.04155 | 102.88889 | 8195 ft | 159 kts | 39° |
| 2026-05-07 11:20 | 25.05037 | 102.89654 | 7991 ft | 159 kts | 39° |
| 2026-05-07 11:20 | 25.05903 | 102.90407 | 7765 ft | 158 kts | 39° |
| 2026-05-07 11:20 | 25.06767 | 102.91159 | 7562 ft | 158 kts | 38° |
| 2026-05-07 11:21 | 25.07617 | 102.91899 | 7342 ft | 157 kts | 37° |
| 2026-05-07 11:21 | 25.08469 | 102.92643 | 7086 ft | 157 kts | 38° |
| 2026-05-07 11:21 | 25.09332 | 102.93373 | 6935 ft | 153 kts | 40° |
| 2026-05-07 11:21 | 25.10045 | 102.94012 | 6921 ft | 98 kts | 37° |
| 2026-05-07 11:22 | 25.10350 | 102.94270 | 6921 ft | 22 kts | 35° |
| 2026-05-07 11:22 | 25.10477 | 102.94332 | 6926 ft | 20 kts | 16° |
| 2026-05-07 11:22 | 25.10608 | 102.94365 | 6927 ft | 16 kts | 10° |
| 2026-05-07 11:22 | 25.10651 | 102.94293 | 6931 ft | 15 kts | 229° |
| 2026-05-07 11:23 | 25.10609 | 102.94199 | 6925 ft | 16 kts | 287° |
| 2026-05-07 11:23 | 25.10567 | 102.94095 | 6921 ft | 19 kts | 218° |
| 2026-05-07 11:23 | 25.10445 | 102.93988 | 6926 ft | 26 kts | 218° |
| 2026-05-07 11:23 | 25.10289 | 102.93852 | 6921 ft | 31 kts | 218° |
| 2026-05-07 11:24 | 25.10111 | 102.93698 | 6921 ft | 33 kts | 218° |
| 2026-05-07 11:24 | 25.09933 | 102.93544 | 6921 ft | 33 kts | 218° |
| 2026-05-07 11:24 | 25.09780 | 102.93410 | 6921 ft | 17 kts | 219° |
| 2026-05-07 11:24 | 25.09762 | 102.93394 | 6924 ft | 0 kts | 218° |